Time;durP1;ratioP1;P1;durP2;ratioP2;P2;SDS_P1;SDS_P2;PMS_P1;PMS_P2;Temp;Humidity;BMP_temperature;BMP_pressure;BME280_temperature;BME280_humidity;BME280_pressure;Samples;Min_cycle;Max_cycle;Signal;HPM_P1;HPM_P2
2022/08/12 00:42:53;;;;;;;7.10;2.80;;;;;;;19.67;59.61;102006.53;4983349;28;20035;-70
2022/08/12 00:45:18;;;;;;;3.25;2.30;;;;;;;19.67;59.54;102003.78;4984092;28;20026;-70
2022/08/12 00:47:45;;;;;;;7.43;2.95;;;;;;;19.55;60.45;101997.03;4978791;28;20019;-70
2022/08/12 00:50:18;;;;;;;7.90;2.15;;;;;;;19.43;60.39;101998.56;4994992;28;20074;-70
2022/08/12 00:52:48;;;;;;;4.38;2.42;;;;;;;19.41;60.79;102000.66;4977285;28;20045;-70
2022/08/12 00:55:15;;;;;;;7.43;2.88;;;;;;;19.38;60.52;101996.41;4988083;28;20030;-70
2022/08/12 00:57:46;;;;;;;4.82;2.60;;;;;;;19.33;61.04;101998.00;4981796;28;20041;-70
2022/08/12 01:00:23;;;;;;;11.07;2.92;;;;;;;19.30;61.12;102003.84;4989018;28;20033;-70
2022/08/12 01:02:52;;;;;;;5.90;2.53;;;;;;;19.25;61.41;101994.31;4979131;28;20042;-70
2022/08/12 01:13:40;;;;;;;5.25;2.70;;;;;;;19.12;62.05;101991.34;4986242;28;20042;-70
2022/08/12 01:16:07;;;;;;;12.13;2.85;;;;;;;19.07;61.90;101988.31;4988485;28;20081;-71
2022/08/12 01:18:35;;;;;;;4.28;2.50;;;;;;;19.02;62.03;101988.00;4990306;28;20027;-72
2022/08/12 01:21:52;;;;;;;5.57;2.15;;;;;;;18.97;61.92;101987.72;4975325;28;20398;-71
2022/08/12 01:24:26;;;;;;;6.40;2.35;;;;;;;18.94;61.91;101988.09;4957356;28;20514;-72
2022/08/12 01:26:53;;;;;;;9.90;2.20;;;;;;;18.80;62.63;101991.66;4993010;28;20035;-71
2022/08/12 01:29:25;;;;;;;9.13;2.67;;;;;;;18.72;62.66;101998.09;4990691;28;20105;-72
2022/08/12 01:31:55;;;;;;;5.97;2.25;;;;;;;18.76;62.82;101990.31;4985506;28;20045;-71
2022/08/12 01:34:30;;;;;;;9.48;2.72;;;;;;;18.70;63.44;101990.00;4974784;28;20045;-71
2022/08/12 01:36:58;;;;;;;8.68;2.40;;;;;;;18.59;62.88;101987.69;4983672;28;20022;-69
2022/08/12 01:39:44;;;;;;;7.65;2.72;;;;;;;18.69;62.98;101988.31;4981744;28;20464;-70
2022/08/12 01:42:12;;;;;;;20.15;2.58;;;;;;;18.66;63.04;101991.44;4979625;28;20061;-70
2022/08/12 01:44:38;;;;;;;6.45;2.35;;;;;;;18.65;63.08;101986.97;4988162;28;20014;-70
2022/08/12 01:47:18;;;;;;;5.38;2.78;;;;;;;18.67;63.26;101990.41;4977932;28;20031;-70
2022/08/12 01:50:06;;;;;;;6.85;2.38;;;;;;;18.69;62.96;101980.06;4992983;28;20022;-70
2022/08/12 01:52:43;;;;;;;5.72;2.50;;;;;;;18.63;62.95;101969.81;4979787;28;20065;-70
2022/08/12 01:55:11;;;;;;;5.95;2.53;;;;;;;18.60;62.82;101975.69;4981448;28;20034;-70
2022/08/12 01:57:48;;;;;;;4.13;2.80;;;;;;;18.57;62.93;101976.03;4971034;28;20027;-70
2022/08/12 02:00:17;;;;;;;6.10;2.70;;;;;;;18.59;62.21;101978.63;4987230;28;20035;-70
2022/08/12 02:03:02;;;;;;;6.60;2.38;;;;;;;18.52;62.76;101975.75;4978034;28;20081;-71
2022/08/12 02:11:45;;;;;;;9.88;2.60;;;;;;;18.46;63.09;101979.22;4973736;28;20105;-76
2022/08/12 02:14:29;;;;;;;5.20;2.55;;;;;;;18.42;63.08;101978.72;4980469;28;20117;-71
2022/08/12 02:17:22;;;;;;;5.97;2.47;;;;;;;18.45;63.44;101966.53;4987728;28;20496;-70
2022/08/12 02:20:08;;;;;;;9.15;2.20;;;;;;;18.43;63.56;101979.56;4991710;28;20033;-70
2022/08/12 02:23:30;;;;;;;3.22;1.90;;;;;;;18.50;63.03;101979.69;5013672;23;20021;-71
2022/08/12 02:26:02;;;;;;;5.27;3.23;;;;;;;18.43;63.15;101985.06;4988567;28;20382;-71
2022/08/12 02:28:28;;;;;;;7.07;2.28;;;;;;;18.31;63.11;101983.78;4989554;28;20010;-70
2022/08/12 02:30:55;;;;;;;5.35;2.35;;;;;;;18.32;63.35;101977.25;4988954;28;20026;-70
2022/08/12 02:33:21;;;;;;;6.80;2.50;;;;;;;18.36;63.30;101978.59;4989549;28;20045;-71
2022/08/12 02:35:47;;;;;;;3.50;2.20;;;;;;;18.26;63.03;101983.50;4992166;28;20396;-69
2022/08/12 02:38:12;;;;;;;4.03;2.70;;;;;;;18.16;64.05;101979.06;4991338;28;20022;-69
2022/08/12 02:40:44;;;;;;;4.45;2.88;;;;;;;18.20;63.54;101978.72;4991097;28;20090;-70
2022/08/12 02:43:41;;;;;;;6.07;2.25;;;;;;;18.15;63.65;101971.91;4990209;28;20137;-70
2022/08/12 02:46:09;;;;;;;5.13;2.40;;;;;;;18.12;63.66;101974.13;4991506;28;20476;-70
2022/08/12 02:48:44;;;;;;;4.80;2.40;;;;;;;18.05;64.23;101971.25;4984447;28;20014;-69
2022/08/12 02:51:12;;;;;;;5.13;2.33;;;;;;;18.07;64.54;101974.69;4981776;28;20076;-68
2022/08/12 02:53:38;;;;;;;11.27;2.90;;;;;;;18.06;64.58;101970.25;4979999;28;20026;-70
2022/08/12 02:56:05;;;;;;;4.70;3.03;;;;;;;17.98;64.66;101963.94;4983211;28;20022;-69
2022/08/12 02:58:32;;;;;;;5.15;2.58;;;;;;;17.97;64.40;101963.09;4984450;28;20015;-69
2022/08/12 03:01:03;;;;;;;4.13;2.75;;;;;;;17.97;64.80;101968.56;4985423;28;20031;-70
2022/08/12 03:03:32;;;;;;;2.90;2.45;;;;;;;17.79;65.13;101970.72;4983770;28;20030;-69
2022/08/12 03:06:07;;;;;;;7.05;3.00;;;;;;;17.83;65.32;101961.13;4984799;28;20026;-70
2022/08/12 03:08:42;;;;;;;4.03;2.40;;;;;;;17.81;65.10;101968.69;4987441;28;20014;-69
2022/08/12 03:12:03;;;;;;;7.60;2.55;;;;;;;17.72;65.72;101964.25;4982407;28;20029;-69
2022/08/12 03:14:34;;;;;;;3.75;2.40;;;;;;;17.80;65.61;101964.22;4997601;28;20037;-69
2022/08/12 03:17:20;;;;;;;3.55;2.55;;;;;;;17.81;65.50;101958.56;4988265;28;20027;-70
2022/08/12 03:19:46;;;;;;;4.15;2.10;;;;;;;17.55;66.19;101952.50;4990021;28;20228;-69
2022/08/12 03:22:13;;;;;;;5.75;2.63;;;;;;;17.49;67.01;101954.06;4980413;28;20030;-69
2022/08/12 03:24:43;;;;;;;8.48;2.55;;;;;;;17.59;65.90;101949.22;4987271;28;20477;-70
2022/08/12 03:27:12;;;;;;;5.00;2.75;;;;;;;17.57;66.56;101955.91;4987221;28;20026;-71
2022/08/12 03:29:38;;;;;;;4.20;2.75;;;;;;;17.58;66.81;101952.97;4990731;28;20018;-71
2022/08/12 03:32:04;;;;;;;7.53;2.67;;;;;;;17.56;66.37;101949.59;4991143;28;20030;-72
2022/08/12 03:34:34;;;;;;;7.85;3.55;;;;;;;17.47;66.58;101950.63;4990719;28;20018;-73
2022/08/12 03:37:01;;;;;;;6.88;2.78;;;;;;;17.42;67.22;101947.59;4988138;28;20045;-73
2022/08/12 03:42:26;;;;;;;3.65;2.42;;;;;;;17.38;67.24;101951.69;4992132;28;20033;-71
2022/08/12 04:01:56;;;;;;;8.82;3.15;;;;;;;17.09;68.72;101947.69;4995209;28;20105;-69
2022/08/12 04:04:31;;;;;;;9.73;2.90;;;;;;;17.18;67.84;101951.25;4993493;28;20050;-70
2022/08/12 04:06:57;;;;;;;6.18;3.00;;;;;;;17.14;67.69;101946.28;4994514;28;20031;-71
2022/08/12 04:09:23;;;;;;;9.60;3.60;;;;;;;17.06;68.38;101948.03;4994233;28;20026;-71
2022/08/12 04:14:34;;;;;;;16.17;3.15;;;;;;;16.92;69.42;101951.47;4988986;28;20025;-70
2022/08/12 04:17:00;;;;;;;6.13;3.60;;;;;;;17.03;68.81;101945.66;4994160;28;20411;-70
2022/08/12 04:19:26;;;;;;;5.18;2.78;;;;;;;17.01;69.00;101944.09;4994781;28;20022;-69
2022/08/12 04:21:54;;;;;;;7.03;3.45;;;;;;;17.01;69.34;101947.69;4994206;28;20042;-70
2022/08/12 04:24:20;;;;;;;8.23;3.63;;;;;;;16.99;69.74;101947.03;4993343;28;20057;-70
2022/08/12 04:26:46;;;;;;;6.72;3.30;;;;;;;16.94;70.13;101954.03;4993824;28;20026;-69
2022/08/12 04:29:12;;;;;;;10.25;4.03;;;;;;;16.85;70.57;101955.09;4991610;28;20065;-70
2022/08/12 04:31:42;;;;;;;9.48;3.55;;;;;;;16.92;70.23;101956.97;4994555;28;20062;-71
2022/08/12 04:34:10;;;;;;;6.18;3.83;;;;;;;17.00;69.46;101948.72;4994622;28;20069;-70
2022/08/12 04:36:40;;;;;;;13.68;3.45;;;;;;;16.98;69.88;101945.31;4994444;28;20029;-71
2022/08/12 04:39:10;;;;;;;11.32;4.65;;;;;;;17.08;69.78;101950.59;4993924;28;20022;-71
2022/08/12 04:41:37;;;;;;;4.35;3.47;;;;;;;17.18;69.18;101951.25;4994610;28;20022;-71
2022/08/12 04:44:07;;;;;;;12.80;3.40;;;;;;;17.23;68.75;101953.47;4992909;28;20030;-69
2022/08/12 04:46:33;;;;;;;14.15;3.33;;;;;;;17.32;68.59;101955.16;4987358;28;20480;-69
2022/08/12 04:49:01;;;;;;;7.57;3.30;;;;;;;17.37;68.58;101960.94;4990659;28;20027;-69
2022/08/12 04:51:27;;;;;;;12.68;3.20;;;;;;;17.46;68.23;101959.88;4991797;28;20088;-68
2022/08/12 04:53:52;;;;;;;9.20;3.67;;;;;;;17.44;69.25;101956.47;4989834;28;20023;-69
2022/08/12 04:56:18;;;;;;;10.55;5.88;;;;;;;17.46;68.14;101957.13;4992640;28;20025;-70
2022/08/12 04:58:44;;;;;;;12.48;3.65;;;;;;;17.57;67.82;101955.91;4993628;28;20054;-70
2022/08/12 05:01:10;;;;;;;10.90;3.97;;;;;;;17.63;67.84;101956.06;4993636;28;20034;-70
2022/08/12 05:03:36;;;;;;;5.32;3.22;;;;;;;17.74;67.43;101956.72;4994299;28;20357;-73
2022/08/12 05:06:03;;;;;;;11.00;3.35;;;;;;;17.80;66.91;101961.47;4994172;28;20117;-72
2022/08/12 05:08:29;;;;;;;7.80;3.17;;;;;;;17.70;66.62;101955.34;4976082;28;20046;-73
2022/08/12 05:10:55;;;;;;;5.53;3.47;;;;;;;17.92;67.19;101954.56;4975200;28;20026;-72
2022/08/12 05:13:24;;;;;;;8.73;3.63;;;;;;;18.09;66.09;101950.69;4978302;28;20374;-73
2022/08/12 05:15:50;;;;;;;6.95;2.55;;;;;;;18.21;65.95;101964.00;4993676;28;20022;-72
2022/08/12 05:18:16;;;;;;;11.75;3.25;;;;;;;18.34;65.86;101947.78;4993629;28;20096;-73
2022/08/12 05:20:42;;;;;;;6.18;3.25;;;;;;;18.36;65.66;101951.19;4994665;28;20034;-72
2022/08/12 05:23:14;;;;;;;6.13;2.97;;;;;;;18.38;65.74;101946.34;4993337;28;20042;-72
2022/08/12 05:25:41;;;;;;;;;;;;;;;18.55;65.12;101956.16;4993978;28;20029;-73
2022/08/12 05:28:07;;;;;;;4.90;3.10;;;;;;;18.47;65.31;101950.75;4993860;28;19916;-73
2022/08/12 05:30:33;;;;;;;11.73;3.47;;;;;;;18.42;65.46;101955.94;4993880;28;20026;-73
2022/08/12 05:33:04;;;;;;;6.95;3.03;;;;;;;18.44;64.91;101953.84;4990158;28;20026;-73
2022/08/12 05:35:30;;;;;;;10.38;3.50;;;;;;;18.66;64.18;101947.53;4993762;28;20026;-73
2022/08/12 05:40:40;;;;;;;5.15;3.10;;;;;;;18.74;64.02;101943.88;4994063;28;20050;-73
2022/08/12 05:43:07;;;;;;;6.40;3.28;;;;;;;18.80;63.91;101947.75;4992356;28;20018;-73
2022/08/12 05:45:32;;;;;;;7.38;3.50;;;;;;;18.86;64.03;101955.25;4993327;28;20032;-73
2022/08/12 05:47:58;;;;;;;11.95;3.30;;;;;;;19.08;62.87;101957.06;4994184;28;20086;-72
2022/08/12 05:50:24;;;;;;;12.07;3.45;;;;;;;19.03;62.98;101959.50;4995085;28;20038;-71
2022/08/12 05:52:50;;;;;;;8.75;3.40;;;;;;;19.03;63.27;101954.03;4994328;28;20038;-73
2022/08/12 05:55:16;;;;;;;9.93;3.85;;;;;;;19.24;63.05;101956.91;4993314;28;20026;-71
2022/08/12 05:57:47;;;;;;;7.70;2.75;;;;;;;19.34;62.85;101962.09;4985322;28;20034;-71
2022/08/12 06:00:15;;;;;;;4.38;3.20;;;;;;;19.54;62.27;101962.38;4989978;28;20034;-71
2022/08/12 06:02:40;;;;;;;7.20;2.88;;;;;;;19.64;61.87;101973.97;4982362;28;20027;-71
2022/08/12 06:05:09;;;;;;;8.35;2.90;;;;;;;19.71;62.00;101966.66;4982012;28;20045;-72
2022/08/12 06:07:44;;;;;;;5.38;3.30;;;;;;;19.82;61.84;101964.44;4988541;28;20014;-71
2022/08/12 06:10:12;;;;;;;10.52;3.13;;;;;;;19.92;61.40;101978.75;4980864;28;20038;-73
2022/08/12 06:12:37;;;;;;;10.70;2.88;;;;;;;20.17;60.62;101969.09;4984887;28;20050;-71
2022/08/12 06:15:04;;;;;;;12.43;3.50;;;;;;;20.11;60.94;101967.13;4982795;28;20065;-70
2022/08/12 06:17:29;;;;;;;6.57;3.05;;;;;;;20.22;60.77;101976.78;4982917;28;20029;-71
2022/08/12 06:19:57;;;;;;;5.55;2.80;;;;;;;20.38;60.18;101970.16;4982515;28;20027;-71
2022/08/12 06:22:24;;;;;;;8.70;3.03;;;;;;;20.40;60.69;101973.56;4992020;28;20113;-71
2022/08/12 06:24:52;;;;;;;3.55;2.83;;;;;;;20.46;60.21;101962.66;4993360;28;20022;-71
2022/08/12 06:27:18;;;;;;;18.95;2.78;;;;;;;20.83;59.49;101975.28;4984379;28;20026;-71
2022/08/12 06:29:43;;;;;;;9.77;2.88;;;;;;;20.69;60.06;101973.47;4992215;28;20018;-73
2022/08/12 06:32:09;;;;;;;12.18;2.63;;;;;;;20.94;59.22;101975.78;4992269;28;20026;-73
2022/08/12 06:34:35;;;;;;;9.75;3.40;;;;;;;21.03;59.41;101969.06;4989853;28;20018;-73
2022/08/12 06:37:01;;;;;;;8.43;2.70;;;;;;;20.98;58.57;101977.06;4992305;28;20069;-73
2022/08/12 06:39:27;;;;;;;5.57;2.83;;;;;;;21.19;58.71;101979.78;4992660;28;20053;-73
2022/08/12 06:44:36;;;;;;;8.45;2.78;;;;;;;21.12;57.92;101967.84;4982031;28;20052;-71
2022/08/12 06:47:01;;;;;;;10.45;2.47;;;;;;;21.35;57.32;101973.97;4983081;28;20027;-74
2022/08/12 06:49:34;;;;;;;15.10;3.53;;;;;;;21.35;57.26;101973.97;4986884;28;20018;-72
2022/08/12 06:51:59;;;;;;;17.05;7.25;;;;;;;21.49;57.00;101982.31;4981894;28;20060;-74
2022/08/12 06:54:25;;;;;;;10.23;3.17;;;;;;;21.40;57.21;101976.97;4986177;28;20046;-74
2022/08/12 06:56:51;;;;;;;5.75;3.10;;;;;;;21.47;56.94;101982.53;4985719;28;20026;-72
2022/08/12 06:59:20;;;;;;;10.18;2.58;;;;;;;21.54;56.77;101977.06;4985913;28;20030;-73
2022/08/12 07:01:45;;;;;;;8.70;2.75;;;;;;;21.68;56.45;101973.31;4986011;28;20082;-73
2022/08/12 07:04:14;;;;;;;14.60;2.70;;;;;;;21.56;56.20;101980.44;4985538;28;20113;-71
2022/08/12 07:06:40;;;;;;;10.23;2.70;;;;;;;21.60;55.95;101976.25;4985499;28;20018;-73
2022/08/12 07:09:05;;;;;;;3.63;2.80;;;;;;;21.89;55.10;101975.09;4987126;28;20022;-72
2022/08/12 07:11:32;;;;;;;11.30;3.13;;;;;;;22.03;55.56;101968.56;4987191;28;20030;-74
2022/08/12 07:13:59;;;;;;;8.23;2.97;;;;;;;22.30;55.47;101977.81;4986238;28;20049;-74
2022/08/12 07:16:25;;;;;;;11.85;2.75;;;;;;;22.50;55.11;101971.47;4985952;28;20026;-74
2022/08/12 07:18:52;;;;;;;12.00;2.92;;;;;;;22.55;54.47;101968.91;4987078;28;20014;-72
2022/08/12 07:21:18;;;;;;;13.27;2.72;;;;;;;22.57;53.34;101966.81;4986332;28;20076;-74
2022/08/12 07:23:44;;;;;;;9.73;2.53;;;;;;;22.45;53.61;101964.66;4986251;28;20038;-73
2022/08/12 07:26:15;;;;;;;8.88;2.90;;;;;;;22.58;53.44;101968.50;4985722;28;20076;-73
2022/08/12 07:28:42;;;;;;;;;;;;;;;22.84;52.98;101962.97;4984485;28;20026;-72
2022/08/12 07:31:08;;;;;;;7.63;2.40;;;;;;;22.91;52.40;101969.38;4986365;28;19909;-73
2022/08/12 07:33:39;;;;;;;10.55;2.45;;;;;;;22.90;53.60;101970.44;4987352;28;20169;-73
2022/08/12 07:36:07;;;;;;;11.82;3.00;;;;;;;23.11;53.15;101958.31;4986884;28;20018;-74
2022/08/12 07:38:47;;;;;;;7.53;2.88;;;;;;;23.05;53.01;101964.69;4982304;28;20030;-74
2022/08/12 07:41:29;;;;;;;8.15;2.50;;;;;;;23.43;52.41;101973.13;4986786;28;20026;-74
2022/08/12 07:43:58;;;;;;;;;;;;;;;23.95;50.85;101968.50;4986490;28;20030;-73
2022/08/12 07:46:30;;;;;;;7.10;2.85;;;;;;;24.12;50.36;101976.25;4985658;28;19910;-74
2022/08/12 07:49:00;;;;;;;8.98;2.67;;;;;;;24.28;50.22;101976.59;4987818;28;20054;-72
2022/08/12 07:51:27;;;;;;;7.93;2.93;;;;;;;24.48;49.58;101970.97;4987725;28;20029;-73
2022/08/12 07:53:55;;;;;;;5.20;2.88;;;;;;;24.33;49.23;101973.19;4987446;28;20308;-72
2022/08/12 07:56:21;;;;;;;8.85;2.55;;;;;;;24.31;49.93;101975.28;4987639;28;20018;-73
2022/08/12 07:58:46;;;;;;;10.05;2.90;;;;;;;24.52;49.08;101976.91;4985875;28;20028;-73
2022/08/12 08:01:16;;;;;;;13.43;3.30;;;;;;;24.78;48.63;101978.63;4986275;28;20033;-75
2022/08/12 08:04:54;;;;;;;11.23;3.10;;;;;;;24.86;47.84;101978.34;4986385;28;20101;-73
2022/08/12 08:06:47;;;;;;;11.20;2.95;;;;;;;25.13;47.65;101979.81;4987536;28;20126;-73
2022/08/12 08:09:20;;;;;;;12.57;2.70;;;;;;;25.13;47.10;101982.59;4985218;28;20057;-74
2022/08/12 08:15:02;;;;;;;18.95;2.85;;;;;;;25.65;46.17;101983.09;4987880;28;20045;-73
2022/08/12 08:17:28;;;;;;;15.25;2.50;;;;;;;25.94;44.88;101981.47;4983888;28;20038;-72
2022/08/12 08:19:54;;;;;;;10.98;2.78;;;;;;;26.01;44.63;101992.47;4975912;28;20020;-76
2022/08/12 08:22:38;;;;;;;15.40;2.10;;;;;;;25.89;44.62;101981.34;4985166;28;20026;-72
2022/08/12 08:25:05;;;;;;;8.13;2.70;;;;;;;26.28;44.36;101975.47;4986456;28;20181;-74
2022/08/12 08:27:45;;;;;;;5.22;2.33;;;;;;;26.27;44.75;101982.94;4984830;28;20021;-73
2022/08/12 08:30:12;;;;;;;6.80;2.38;;;;;;;26.39;43.87;101977.44;4981995;28;20066;-75
2022/08/12 08:32:38;;;;;;;9.15;2.97;;;;;;;26.48;42.91;101981.63;4985531;28;20018;-74
2022/08/12 08:35:06;;;;;;;5.82;2.55;;;;;;;26.55;43.33;101984.28;4985329;28;20037;-74
2022/08/12 08:37:31;;;;;;;11.13;2.70;;;;;;;26.82;43.17;101981.91;4984548;28;20018;-74
2022/08/12 08:42:35;;;;;;;9.73;2.70;;;;;;;26.92;43.35;101971.03;4989218;28;20025;-73
2022/08/12 08:42:43;;;;;;;12.10;2.85;;;;;;;27.37;41.61;101976.03;4984402;28;20041;-73
2022/08/12 08:45:11;;;;;;;9.25;2.45;;;;;;;27.26;42.45;101977.75;4989177;28;20026;-74
2022/08/12 08:47:48;;;;;;;10.63;2.75;;;;;;;27.31;42.21;101973.13;4987721;28;20022;-74
2022/08/12 08:50:14;;;;;;;8.07;2.70;;;;;;;27.36;41.42;101966.00;4987413;28;20160;-73
2022/08/12 08:52:41;;;;;;;17.20;3.20;;;;;;;27.26;42.01;101978.59;4989197;28;20041;-74
2022/08/12 08:55:12;;;;;;;8.85;2.67;;;;;;;27.27;40.94;101977.50;4988771;28;20026;-74
2022/08/12 08:57:48;;;;;;;9.20;2.38;;;;;;;27.81;40.28;101975.38;4988972;28;20018;-73
2022/08/12 09:00:21;;;;;;;6.25;2.20;;;;;;;27.53;40.57;101978.06;4989555;28;20049;-74
2022/08/12 09:02:47;;;;;;;5.55;2.33;;;;;;;27.77;39.99;101974.16;4987844;28;20022;-73
2022/08/12 09:05:13;;;;;;;6.03;2.63;;;;;;;28.18;39.73;101980.56;4990690;28;20019;-73
2022/08/12 09:07:47;;;;;;;10.60;2.22;;;;;;;28.27;38.55;101973.47;4988355;28;20049;-74
2022/08/12 09:10:15;;;;;;;3.90;2.40;;;;;;;28.19;39.47;101973.91;4988333;28;20026;-74
2022/08/12 09:15:29;;;;;;;5.68;1.98;;;;;;;28.16;38.38;101970.75;4989085;28;20116;-74
2022/08/12 09:17:59;;;;;;;10.80;2.90;;;;;;;28.19;38.94;101975.84;4989757;28;20030;-74
2022/08/12 09:20:26;;;;;;;9.90;2.67;;;;;;;28.78;37.85;101968.84;4989219;28;20124;-75
2022/08/12 09:22:53;;;;;;;4.60;2.15;;;;;;;28.99;36.60;101970.06;4987552;28;20109;-74
2022/08/12 09:25:25;;;;;;;8.18;2.33;;;;;;;29.00;37.18;101970.88;4988318;28;20032;-74
2022/08/12 09:27:51;;;;;;;;;;;;;;;28.73;37.98;101965.97;4986001;28;20038;-74
2022/08/12 09:30:16;;;;;;;7.97;2.28;;;;;;;28.97;38.10;101965.84;4985980;28;19910;-74
2022/08/12 09:32:49;;;;;;;12.70;2.42;;;;;;;29.39;36.54;101958.66;4988173;28;20489;-74
2022/08/12 09:35:23;;;;;;;9.82;2.50;;;;;;;29.29;36.98;101963.25;4988437;28;20061;-74
2022/08/12 09:37:54;;;;;;;9.65;2.38;;;;;;;29.43;36.24;101959.84;4988171;28;20077;-75
2022/08/12 09:40:21;;;;;;;12.23;2.50;;;;;;;29.56;36.18;101955.00;4989441;28;20392;-73
2022/08/12 09:45:33;;;;;;;12.98;2.55;;;;;;;29.58;35.15;101950.00;4992157;28;20025;-73
2022/08/12 09:48:05;;;;;;;9.50;2.42;;;;;;;29.41;35.19;101950.88;4992605;28;20033;-74
2022/08/12 09:50:31;;;;;;;6.10;2.60;;;;;;;29.59;35.17;101957.25;4993131;28;20045;-73
2022/08/12 09:53:12;;;;;;;5.60;2.50;;;;;;;29.63;34.58;101950.91;4988985;28;20022;-73
2022/08/12 09:55:46;;;;;;;8.07;2.55;;;;;;;29.80;34.15;101953.66;5004879;28;20507;-73
2022/08/12 09:58:15;;;;;;;9.02;2.45;;;;;;;29.54;34.51;101943.22;4991346;28;20098;-73
2022/08/12 10:00:45;;;;;;;8.35;2.65;;;;;;;29.71;34.17;101946.81;4990813;28;20038;-74
2022/08/12 10:03:13;;;;;;;12.27;2.65;;;;;;;30.09;34.05;101945.88;4990392;28;20085;-75
2022/08/12 10:05:42;;;;;;;7.95;2.28;;;;;;;30.33;33.15;101946.44;4989249;28;20030;-74
2022/08/12 10:08:09;;;;;;;13.63;2.50;;;;;;;30.42;32.91;101939.22;4988570;28;20499;-73
2022/08/12 10:13:40;;;;;;;7.45;3.22;;;;;;;30.67;32.13;101929.38;4988536;28;20025;-75
2022/08/12 10:13:40;;;;;;;7.68;2.72;;;;;;;30.64;32.87;101924.31;4989749;28;20031;-73
2022/08/12 10:16:19;;;;;;;9.95;2.70;;;;;;;30.98;31.61;101925.75;4989996;28;20080;-74
2022/08/12 10:18:55;;;;;;;11.88;2.33;;;;;;;30.54;32.23;101930.69;4988462;28;20018;-73
2022/08/12 10:21:35;;;;;;;11.70;2.78;;;;;;;30.62;31.37;101920.94;4988738;28;20045;-73
2022/08/12 10:24:03;;;;;;;4.93;2.10;;;;;;;30.37;32.03;101919.63;4989104;28;20084;-73
2022/08/12 10:31:59;;;;;;;10.52;2.40;;;;;;;30.79;29.97;101904.91;4989506;28;20022;-74
2022/08/12 10:34:25;;;;;;;10.95;3.47;;;;;;;31.11;30.59;101907.63;4987731;28;20027;-74
2022/08/12 10:36:57;;;;;;;11.52;3.40;;;;;;;31.06;30.42;101904.81;4988564;28;20555;-75
2022/08/12 10:39:25;;;;;;;19.38;3.05;;;;;;;31.07;29.96;101901.72;4987989;28;20042;-73
2022/08/12 10:44:35;;;;;;;14.90;2.38;;;;;;;31.12;29.49;101880.50;4989645;28;20038;-73
2022/08/12 10:47:02;;;;;;;10.00;2.53;;;;;;;31.42;28.85;101880.66;4985412;28;20066;-74
2022/08/12 10:49:33;;;;;;;8.45;3.72;;;;;;;31.49;29.34;101884.03;4989606;28;20036;-74
2022/08/12 10:52:01;;;;;;;9.27;3.88;;;;;;;31.67;28.56;101870.66;4986257;28;20026;-74
2022/08/12 10:54:27;;;;;;;8.55;3.10;;;;;;;32.27;27.18;101880.31;4987996;28;20030;-75
2022/08/12 10:56:53;;;;;;;6.15;2.58;;;;;;;32.68;26.07;101870.81;4989348;28;20025;-76
2022/08/12 10:59:20;;;;;;;8.00;2.83;;;;;;;32.66;26.22;101867.41;4988481;28;20090;-75
2022/08/12 11:01:48;;;;;;;17.63;5.32;;;;;;;32.57;26.26;101869.13;4984791;28;20062;-73
2022/08/12 11:04:15;;;;;;;23.17;10.93;;;;;;;32.93;25.99;101866.31;4988363;28;20026;-75
2022/08/12 11:06:49;;;;;;;13.40;5.55;;;;;;;33.21;25.67;101865.63;4988399;28;20052;-74
2022/08/12 11:09:23;;;;;;;7.10;1.98;;;;;;;32.43;26.23;101861.56;4987682;28;20037;-73
2022/08/12 11:11:49;;;;;;;15.85;3.85;;;;;;;32.23;25.72;101862.38;4987778;28;20023;-73
2022/08/12 11:14:16;;;;;;;28.08;7.68;;;;;;;32.32;25.91;101849.47;4983693;28;20031;-75
2022/08/12 11:16:43;;;;;;;20.10;6.65;;;;;;;32.72;27.00;101848.63;4983797;28;20018;-73
2022/08/12 11:19:10;;;;;;;9.00;2.97;;;;;;;32.87;25.92;101850.59;4988252;28;20030;-73
2022/08/12 11:21:36;;;;;;;24.17;7.28;;;;;;;33.27;24.75;101857.19;4988564;28;20038;-73
2022/08/12 11:24:02;;;;;;;7.72;2.45;;;;;;;33.17;23.59;101844.88;4985925;28;20022;-73
2022/08/12 11:26:27;;;;;;;12.77;4.18;;;;;;;33.40;24.59;101848.19;4987304;28;20037;-74
2022/08/12 11:28:53;;;;;;;16.92;4.45;;;;;;;33.39;24.54;101852.97;4988742;28;20034;-75
2022/08/12 11:31:18;;;;;;;12.38;2.38;;;;;;;33.11;24.31;101846.00;4986259;28;20427;-73
2022/08/12 11:33:43;;;;;;;15.70;2.35;;;;;;;33.22;24.53;101847.66;4983675;28;20022;-73
2022/08/12 11:36:09;;;;;;;5.90;2.20;;;;;;;32.99;24.33;101842.69;4986365;28;20061;-75
2022/08/12 11:38:34;;;;;;;5.38;2.00;;;;;;;33.28;23.49;101851.28;4984830;28;20023;-74
2022/08/12 11:41:02;;;;;;;4.50;2.38;;;;;;;33.50;23.80;101842.50;4979399;28;20031;-73
2022/08/12 11:43:28;;;;;;;8.68;2.15;;;;;;;34.11;23.31;101846.91;4987455;28;20118;-74
2022/08/12 11:45:53;;;;;;;12.30;2.70;;;;;;;34.16;22.52;101844.88;4985627;28;20129;-75
2022/08/12 11:48:19;;;;;;;11.25;2.92;;;;;;;34.27;22.57;101840.84;4987750;28;20023;-73
2022/08/12 11:50:44;;;;;;;19.73;4.63;;;;;;;34.33;22.42;101844.47;4987165;28;20101;-73
2022/08/12 11:53:10;;;;;;;8.43;2.20;;;;;;;34.16;22.27;101839.25;4981802;28;20104;-73
2022/08/12 11:55:35;;;;;;;5.63;2.08;;;;;;;33.92;23.17;101843.97;4979555;28;20025;-76
2022/08/12 11:58:00;;;;;;;11.73;1.85;;;;;;;33.95;22.39;101832.13;4987165;28;20064;-75
2022/08/12 12:00:26;;;;;;;8.70;2.60;;;;;;;34.25;22.69;101831.06;4987157;28;20252;-73
2022/08/12 12:02:51;;;;;;;4.63;2.15;;;;;;;34.02;22.20;101832.63;4987002;28;20018;-73
2022/08/12 12:05:16;;;;;;;14.98;3.17;;;;;;;34.15;22.24;101837.59;4986870;28;20030;-74
2022/08/12 12:07:43;;;;;;;5.88;2.63;;;;;;;34.17;22.03;101829.72;4987204;28;20084;-75
2022/08/12 12:10:17;;;;;;;10.02;2.20;;;;;;;34.03;22.08;101828.69;4985197;28;20027;-75
2022/08/12 12:12:43;;;;;;;6.90;2.08;;;;;;;34.71;21.48;101819.38;4987471;28;20549;-75
2022/08/12 12:15:09;;;;;;;7.20;2.30;;;;;;;34.61;21.06;101813.84;4989950;28;20022;-75
2022/08/12 12:17:36;;;;;;;5.57;2.20;;;;;;;35.27;20.71;101819.53;4990571;28;20019;-76
2022/08/12 12:20:05;;;;;;;8.93;2.00;;;;;;;35.76;19.28;101809.88;4991829;28;20026;-76
2022/08/12 12:22:30;;;;;;;11.43;2.58;;;;;;;35.50;20.39;101823.50;4990384;28;20034;-75
2022/08/12 12:24:57;;;;;;;13.90;2.10;;;;;;;35.40;19.68;101812.31;4989645;28;20041;-75
2022/08/12 12:27:22;;;;;;;9.98;2.92;;;;;;;35.45;19.90;101814.28;4991211;28;20072;-75
2022/08/12 12:29:48;;;;;;;15.73;2.55;;;;;;;34.61;20.31;101811.88;4989821;28;20155;-78
2022/08/12 12:32:13;;;;;;;12.35;2.00;;;;;;;35.02;20.09;101805.81;4990052;28;20026;-76
2022/08/12 12:34:39;;;;;;;5.15;2.20;;;;;;;35.16;20.27;101809.56;4988049;28;20026;-77
2022/08/12 12:37:05;;;;;;;12.00;2.40;;;;;;;35.60;19.69;101814.03;4989126;28;20054;-76
2022/08/12 12:39:30;;;;;;;4.85;2.40;;;;;;;35.45;20.04;101803.00;4990470;28;20019;-75
2022/08/12 12:41:55;;;;;;;8.80;2.55;;;;;;;35.31;19.76;101800.91;4989352;28;20038;-76
2022/08/12 12:44:21;;;;;;;10.93;3.08;;;;;;;35.26;20.63;101795.34;4989274;28;20034;-76
2022/08/12 12:46:47;;;;;;;14.32;2.80;;;;;;;35.32;19.25;101790.47;4989603;28;20028;-76
2022/08/12 12:49:16;;;;;;;10.38;3.05;;;;;;;35.51;19.50;101790.53;4989032;28;20018;-76
2022/08/12 12:51:41;;;;;;;7.20;2.28;;;;;;;34.92;20.40;101789.03;4989762;28;20432;-76
2022/08/12 12:54:09;;;;;;;6.78;1.98;;;;;;;35.05;20.35;101788.31;4989990;28;20088;-76
2022/08/12 12:56:37;;;;;;;14.38;2.78;;;;;;;35.57;19.66;101789.31;4989501;28;20033;-76
2022/08/12 12:59:04;;;;;;;6.78;2.13;;;;;;;35.16;18.95;101772.97;4991130;28;20077;-76
2022/08/12 13:01:36;;;;;;;10.77;1.90;;;;;;;35.15;19.25;101782.56;4989227;28;20022;-76
2022/08/12 13:04:03;;;;;;;3.15;2.28;;;;;;;35.56;19.88;101784.81;4987084;28;20077;-76
2022/08/12 13:06:29;;;;;;;10.27;2.15;;;;;;;35.75;19.58;101780.00;4989609;28;20022;-77
2022/08/12 13:08:56;;;;;;;7.10;2.20;;;;;;;35.05;19.44;101774.25;4989333;28;20014;-76
2022/08/12 13:11:21;;;;;;;8.18;2.42;;;;;;;35.53;19.53;101788.22;4989304;28;20022;-76
2022/08/12 13:13:55;;;;;;;9.25;2.00;;;;;;;34.82;20.11;101778.69;4990112;28;20077;-76
2022/08/12 13:16:21;;;;;;;7.35;1.98;;;;;;;35.30;19.68;101779.53;4989711;28;20080;-76